Terminal Aerodrome Forecast
Issued by NWS

Home | Current Version | Previous Version | Text Only | Print | Product List | Glossary On
Versions: 1 2 3 4 5 6 7 8 9 10 11 12 13 14 15 16 17 18 19 20 21 22 23 24 25
730
FTUS42 KKEY 061120
TAFMTH
TAF
KMTH 061120Z 0612/0712 04010KT P6SM SCT026 BKN050
     FM061600 02008KT P6SM VCSH SCT026 OVC050
      TEMPO 0616/0620 5SM RA BKN026 OVC050
     FM062000 36011G19KT P6SM VCSH SCT010 BKN026 OVC050
      TEMPO 0702/0706 2SM +SHRA BKN010 OVC026
     FM070900 35015G22KT P6SM SCT026 BKN050=

USA.gov is the U.S. government's official web portal to all federal, state and local government web resources and services.